Time,TemperatureF,DewpointF,PressureIn,WindDirection,WindDirectionDegrees,WindSpeedMPH,WindSpeedGustMPH,Humidity,HourlyPrecipIn,Conditions,Clouds,dailyrainin,SoftwareType,DateUTC
2013-02-14 00:09:00,25.7,16.9,0.40,NE,41,0.0,0.0,69,0.01,,---,99.99,VWS V14.01,2013-02-14 07:09:00,
2013-02-14 07:29:00,30.6,21.2,30.07,WSW,250,0.0,0.0,68,0.00,,---,0.00,VWS V14.01,2013-02-14 14:29:00,
2013-02-14 07:30:00,30.7,21.3,30.07,WSW,250,0.0,0.0,68,0.00,,---,0.00,VWS V14.01,2013-02-14 14:30:00,
2013-02-14 07:31:00,30.8,21.4,30.07,WSW,250,0.0,0.0,68,0.00,,---,0.00,VWS V14.01,2013-02-14 14:31:00,
2013-02-14 07:32:00,30.9,21.4,30.07,WSW,250,0.0,0.0,67,0.00,,---,0.00,VWS V14.01,2013-02-14 14:32:00,
2013-02-14 07:33:00,30.9,21.3,30.07,WSW,250,0.0,0.0,67,0.00,,---,0.00,VWS V14.01,2013-02-14 14:33:00,
2013-02-14 07:34:00,31.0,21.3,30.07,WSW,250,0.0,0.0,67,0.00,,---,0.00,VWS V14.01,2013-02-14 14:34:00,
2013-02-14 07:35:00,31.1,21.4,30.07,WSW,250,0.0,0.0,67,0.00,,---,0.00,VWS V14.01,2013-02-14 14:35:00,
2013-02-14 07:36:00,31.1,21.4,30.07,WSW,250,0.0,0.0,67,0.00,,---,0.00,VWS V14.01,2013-02-14 14:36:00,
2013-02-14 07:37:00,31.2,21.4,30.07,WSW,250,0.0,0.0,67,0.00,,---,0.00,VWS V14.01,2013-02-14 14:37:00,
2013-02-14 07:38:00,31.2,21.3,30.07,WSW,250,0.0,0.0,66,0.00,,---,0.00,VWS V14.01,2013-02-14 14:38:00,
2013-02-14 07:39:00,31.3,21.3,30.07,WSW,250,0.0,0.0,66,0.00,,---,0.00,VWS V14.01,2013-02-14 14:39:00,
2013-02-14 07:40:00,31.3,21.2,30.07,WSW,250,0.0,0.0,66,0.00,,---,0.00,VWS V14.01,2013-02-14 14:40:00,
2013-02-14 07:41:00,31.4,21.2,30.07,WSW,250,0.0,0.0,66,0.00,,---,0.00,VWS V14.01,2013-02-14 14:41:00,
2013-02-14 07:42:00,31.4,21.2,30.07,WSW,250,0.0,0.0,66,0.00,,---,0.00,VWS V14.01,2013-02-14 14:42:00,
2013-02-14 07:43:00,31.4,21.2,30.07,WSW,250,0.0,0.0,65,0.00,,---,0.00,VWS V14.01,2013-02-14 14:43:00,
2013-02-14 07:44:00,31.5,21.2,30.07,WSW,250,0.0,0.0,65,0.00,,---,0.00,VWS V14.01,2013-02-14 14:44:00,
2013-02-14 07:45:00,31.6,21.1,30.07,WSW,250,0.0,0.0,65,0.00,,---,0.00,VWS V14.01,2013-02-14 14:45:00,
2013-02-14 07:46:00,31.6,21.0,30.07,WSW,250,0.0,0.0,64,0.00,,---,0.00,VWS V14.01,2013-02-14 14:46:00,
2013-02-14 07:47:00,31.6,20.9,30.07,WSW,250,0.0,0.0,64,0.00,,---,0.00,VWS V14.01,2013-02-14 14:47:00,
2013-02-14 07:48:00,31.6,20.9,30.07,WSW,250,0.0,0.0,64,0.00,,---,0.00,VWS V14.01,2013-02-14 14:48:00,
2013-02-14 07:49:00,31.7,20.9,30.07,WSW,250,0.0,0.0,64,0.00,,---,0.00,VWS V14.01,2013-02-14 14:49:00,
2013-02-14 07:50:00,31.7,21.0,30.07,WSW,250,0.0,0.0,64,0.00,,---,0.00,VWS V14.01,2013-02-14 14:50:00,
2013-02-14 07:51:00,31.7,21.0,30.07,WSW,250,0.0,0.0,64,0.00,,---,0.00,VWS V14.01,2013-02-14 14:51:00,
2013-02-14 07:52:00,31.9,21.2,30.07,WSW,250,0.0,0.0,64,0.00,,---,0.00,VWS V14.01,2013-02-14 14:52:00,
2013-02-14 07:53:00,31.9,21.0,30.06,WSW,250,0.0,0.0,64,0.00,,---,0.00,VWS V14.01,2013-02-14 14:53:00,
2013-02-14 07:54:00,31.9,20.9,30.06,WSW,250,0.0,0.0,63,0.00,,---,0.00,VWS V14.01,2013-02-14 14:54:00,
2013-02-14 07:55:00,32.0,20.9,30.07,WSW,250,0.0,0.0,63,0.00,,---,0.00,VWS V14.01,2013-02-14 14:55:00,
2013-02-14 07:56:00,32.1,20.9,30.06,WSW,250,0.0,0.0,63,0.00,,---,0.00,VWS V14.01,2013-02-14 14:56:00,
2013-02-14 07:57:00,32.2,20.8,30.06,WSW,250,0.0,0.0,62,0.00,,---,0.00,VWS V14.01,2013-02-14 14:57:00,
2013-02-14 07:58:00,32.3,20.8,30.07,WSW,250,0.0,0.0,62,0.00,,---,0.00,VWS V14.01,2013-02-14 14:58:00,
2013-02-14 07:59:00,32.4,20.9,30.07,WSW,250,0.0,0.0,62,0.00,,---,0.00,VWS V14.01,2013-02-14 14:59:00,
2013-02-14 08:00:00,32.5,20.8,30.07,WSW,250,0.0,0.0,62,0.00,,---,0.00,VWS V14.01,2013-02-14 15:00:00,
2013-02-14 08:01:00,32.5,20.6,30.07,WSW,250,0.0,0.0,61,0.00,,---,0.00,VWS V14.01,2013-02-14 15:01:00,
2013-02-14 08:02:00,32.6,20.5,30.07,WSW,250,0.0,0.0,61,0.00,,---,0.00,VWS V14.01,2013-02-14 15:02:00,
2013-02-14 08:03:00,32.7,20.3,30.07,West,267,0.0,0.0,60,0.00,,---,0.00,VWS V14.01,2013-02-14 15:03:00,
2013-02-14 08:04:00,32.8,20.2,30.07,West,267,0.0,0.0,59,0.00,,---,0.00,VWS V14.01,2013-02-14 15:04:00,
2013-02-14 08:05:00,32.9,20.0,30.07,West,267,0.0,0.0,59,0.00,,---,0.00,VWS V14.01,2013-02-14 15:05:00,
2013-02-14 08:06:00,32.9,19.9,30.07,West,267,0.0,0.0,58,0.00,,---,0.00,VWS V14.01,2013-02-14 15:06:00,
2013-02-14 08:07:00,33.1,19.9,30.07,West,267,0.0,0.0,58,0.00,,---,0.00,VWS V14.01,2013-02-14 15:07:00,
2013-02-14 08:08:00,33.1,19.7,30.07,West,267,0.0,0.0,58,0.00,,---,0.00,VWS V14.01,2013-02-14 15:08:00,
2013-02-14 08:09:00,33.2,19.7,30.07,West,267,0.0,0.0,57,0.00,,---,0.00,VWS V14.01,2013-02-14 15:09:00,
2013-02-14 08:10:00,33.2,19.7,30.07,West,267,0.0,0.0,57,0.00,,---,0.00,VWS V14.01,2013-02-14 15:10:00,
2013-02-14 08:11:00,33.3,19.7,30.07,West,267,0.0,0.0,57,0.00,,---,0.00,VWS V14.01,2013-02-14 15:11:00,
2013-02-14 08:12:00,33.4,19.7,30.07,West,267,0.0,0.0,57,0.00,,---,0.00,VWS V14.01,2013-02-14 15:12:00,
2013-02-14 08:13:00,33.5,19.5,30.07,West,267,0.0,0.0,56,0.00,,---,0.00,VWS V14.01,2013-02-14 15:13:00,
2013-02-14 08:14:00,33.5,19.2,30.07,West,267,0.0,0.0,55,0.00,,---,0.00,VWS V14.01,2013-02-14 15:14:00,
2013-02-14 08:15:00,33.6,19.2,30.08,West,267,0.0,0.0,55,0.00,,---,0.00,VWS V14.01,2013-02-14 15:15:00,
2013-02-14 08:16:00,33.6,19.2,30.08,West,267,0.0,0.0,55,0.00,,---,0.00,VWS V14.01,2013-02-14 15:16:00,
2013-02-14 08:17:00,33.6,19.2,30.08,West,267,0.0,0.0,55,0.00,,---,0.00,VWS V14.01,2013-02-14 15:17:00,
2013-02-14 08:18:00,33.7,19.2,30.08,West,267,0.0,0.0,55,0.00,,---,0.00,VWS V14.01,2013-02-14 15:18:00,
2013-02-14 08:19:00,33.7,19.2,30.08,West,267,0.0,0.0,55,0.00,,---,0.00,VWS V14.01,2013-02-14 15:19:00,
2013-02-14 08:20:00,33.7,19.2,30.08,West,267,0.0,0.0,55,0.00,,---,0.00,VWS V14.01,2013-02-14 15:20:00,
2013-02-14 08:21:00,33.8,19.2,30.08,West,267,0.0,0.0,55,0.00,,---,0.00,VWS V14.01,2013-02-14 15:21:00,
2013-02-14 08:22:00,33.9,19.2,30.08,West,267,0.0,0.0,54,0.00,,---,0.00,VWS V14.01,2013-02-14 15:22:00,
2013-02-14 08:23:00,33.9,19.1,30.08,West,267,0.0,0.0,54,0.00,,---,0.00,VWS V14.01,2013-02-14 15:23:00,
2013-02-14 08:24:00,33.9,18.9,30.08,West,267,0.0,0.0,54,0.00,,---,0.00,VWS V14.01,2013-02-14 15:24:00,
2013-02-14 08:25:00,34.0,18.8,30.08,West,267,0.0,0.0,53,0.00,,---,0.00,VWS V14.01,2013-02-14 15:25:00,
2013-02-14 08:26:00,34.0,18.6,30.08,West,267,0.0,0.0,53,0.00,,---,0.00,VWS V14.01,2013-02-14 15:26:00,
2013-02-14 08:27:00,34.1,18.7,30.08,West,267,0.0,0.0,53,0.00,,---,0.00,VWS V14.01,2013-02-14 15:27:00,
2013-02-14 08:28:00,34.1,18.7,30.08,West,267,0.0,0.0,53,0.00,,---,0.00,VWS V14.01,2013-02-14 15:28:00,
2013-02-14 08:29:00,30.6,21.2,30.07,WSW,250,0.0,0.0,68,0.00,,---,0.00,VWS V14.01,2013-02-14 15:29:00,
2013-02-14 08:30:00,30.6,21.2,30.07,WSW,250,0.0,0.0,68,0.00,,---,0.00,VWS V14.01,2013-02-14 15:30:00,
2013-02-14 08:31:00,30.7,21.3,30.07,WSW,250,0.0,0.0,68,0.00,,---,0.00,VWS V14.01,2013-02-14 15:31:00,
2013-02-14 08:32:00,30.9,21.4,30.07,WSW,250,0.0,0.0,67,0.00,,---,0.00,VWS V14.01,2013-02-14 15:32:00,
2013-02-14 08:33:00,30.9,21.3,30.07,WSW,250,0.0,0.0,67,0.00,,---,0.00,VWS V14.01,2013-02-14 15:33:00,
2013-02-14 08:34:00,31.0,21.3,30.07,WSW,250,0.0,0.0,67,0.00,,---,0.00,VWS V14.01,2013-02-14 15:34:00,
2013-02-14 08:35:00,31.1,21.4,30.07,WSW,250,0.0,0.0,67,0.00,,---,0.00,VWS V14.01,2013-02-14 15:35:00,
2013-02-14 08:36:00,31.1,21.4,30.07,WSW,250,0.0,0.0,67,0.00,,---,0.00,VWS V14.01,2013-02-14 15:36:00,
2013-02-14 08:37:00,31.2,21.4,30.07,WSW,250,0.0,0.0,67,0.00,,---,0.00,VWS V14.01,2013-02-14 15:37:00,
2013-02-14 08:38:00,31.2,21.3,30.07,WSW,250,0.0,0.0,66,0.00,,---,0.00,VWS V14.01,2013-02-14 15:38:00,
2013-02-14 08:39:00,31.3,21.3,30.07,WSW,250,0.0,0.0,66,0.00,,---,0.00,VWS V14.01,2013-02-14 15:39:00,
2013-02-14 08:40:00,31.3,21.2,30.07,WSW,250,0.0,0.0,66,0.00,,---,0.00,VWS V14.01,2013-02-14 15:40:00,
2013-02-14 08:41:00,31.3,21.1,30.07,WSW,250,0.0,0.0,66,0.00,,---,0.00,VWS V14.01,2013-02-14 15:41:00,
2013-02-14 08:42:00,31.4,21.2,30.07,WSW,250,0.0,0.0,66,0.00,,---,0.00,VWS V14.01,2013-02-14 15:42:00,
2013-02-14 08:43:00,31.4,21.2,30.07,WSW,250,0.0,0.0,65,0.00,,---,0.00,VWS V14.01,2013-02-14 15:43:00,
2013-02-14 08:44:00,31.5,21.2,30.07,WSW,250,0.0,0.0,65,0.00,,---,0.00,VWS V14.01,2013-02-14 15:44:00,
2013-02-14 08:45:00,31.6,21.1,30.07,WSW,250,0.0,0.0,65,0.00,,---,0.00,VWS V14.01,2013-02-14 15:45:00,
2013-02-14 08:46:00,31.5,21.0,30.07,WSW,250,0.0,0.0,65,0.00,,---,0.00,VWS V14.01,2013-02-14 15:46:00,
2013-02-14 08:47:00,31.6,20.9,30.07,WSW,250,0.0,0.0,64,0.00,,---,0.00,VWS V14.01,2013-02-14 15:47:00,
2013-02-14 08:48:00,31.6,20.9,30.07,WSW,250,0.0,0.0,64,0.00,,---,0.00,VWS V14.01,2013-02-14 15:48:00,
2013-02-14 08:49:00,31.7,20.9,30.07,WSW,250,0.0,0.0,64,0.00,,---,0.00,VWS V14.01,2013-02-14 15:49:00,
2013-02-14 08:50:00,31.7,21.0,30.07,WSW,250,0.0,0.0,64,0.00,,---,0.00,VWS V14.01,2013-02-14 15:50:00,
2013-02-14 08:51:00,31.7,21.0,30.07,WSW,250,0.0,0.0,64,0.00,,---,0.00,VWS V14.01,2013-02-14 15:51:00,
2013-02-14 08:52:00,31.9,21.2,30.07,WSW,250,0.0,0.0,64,0.00,,---,0.00,VWS V14.01,2013-02-14 15:52:00,
2013-02-14 08:53:00,31.9,21.0,30.06,WSW,250,0.0,0.0,64,0.00,,---,0.00,VWS V14.01,2013-02-14 15:53:00,
2013-02-14 08:54:00,31.9,20.9,30.06,WSW,250,0.0,0.0,63,0.00,,---,0.00,VWS V14.01,2013-02-14 15:54:00,
2013-02-14 08:55:00,32.0,20.9,30.07,WSW,250,0.0,0.0,63,0.00,,---,0.00,VWS V14.01,2013-02-14 15:55:00,
2013-02-14 08:56:00,32.1,20.9,30.07,WSW,250,0.0,0.0,63,0.00,,---,0.00,VWS V14.01,2013-02-14 15:56:00,
2013-02-14 08:57:00,32.2,20.8,30.06,WSW,250,0.0,0.0,62,0.00,,---,0.00,VWS V14.01,2013-02-14 15:57:00,
2013-02-14 08:58:00,32.3,20.8,30.07,WSW,250,0.0,0.0,62,0.00,,---,0.00,VWS V14.01,2013-02-14 15:58:00,
2013-02-14 08:59:00,32.4,20.9,30.07,WSW,250,0.0,0.0,62,0.00,,---,0.00,VWS V14.01,2013-02-14 15:59:00,
2013-02-14 09:00:00,32.5,20.8,30.07,WSW,250,0.0,0.0,62,0.00,,---,0.00,VWS V14.01,2013-02-14 16:00:00,
2013-02-14 09:01:00,32.5,20.7,30.07,WSW,250,0.0,0.0,61,0.00,,---,0.00,VWS V14.01,2013-02-14 16:01:00,
2013-02-14 09:02:00,32.6,20.5,30.07,WSW,250,0.0,0.0,61,0.00,,---,0.00,VWS V14.01,2013-02-14 16:02:00,
2013-02-14 09:03:00,32.7,20.3,30.07,West,267,0.0,0.0,60,0.00,,---,0.00,VWS V14.01,2013-02-14 16:03:00,
2013-02-14 09:04:00,32.8,20.2,30.07,West,267,0.0,0.0,59,0.00,,---,0.00,VWS V14.01,2013-02-14 16:04:00,
2013-02-14 09:05:00,32.9,20.0,30.07,West,267,0.0,0.0,59,0.00,,---,0.00,VWS V14.01,2013-02-14 16:05:00,
2013-02-14 09:06:00,32.9,20.0,30.07,West,267,0.0,0.0,58,0.00,,---,0.00,VWS V14.01,2013-02-14 16:06:00,
2013-02-14 09:07:00,33.1,19.9,30.07,West,267,0.0,0.0,58,0.00,,---,0.00,VWS V14.01,2013-02-14 16:07:00,
2013-02-14 09:08:00,33.1,19.7,30.07,West,267,0.0,0.0,58,0.00,,---,0.00,VWS V14.01,2013-02-14 16:08:00,
2013-02-14 09:09:00,33.2,19.7,30.07,West,267,0.0,0.0,57,0.00,,---,0.00,VWS V14.01,2013-02-14 16:09:00,
2013-02-14 09:10:00,33.2,19.7,30.07,West,267,0.0,0.0,57,0.00,,---,0.00,VWS V14.01,2013-02-14 16:10:00,
2013-02-14 09:11:00,33.3,19.8,30.07,West,267,0.0,0.0,57,0.00,,---,0.00,VWS V14.01,2013-02-14 16:11:00,
2013-02-14 09:12:00,33.4,19.7,30.07,West,267,0.0,0.0,57,0.00,,---,0.00,VWS V14.01,2013-02-14 16:12:00,
2013-02-14 09:13:00,33.5,19.5,30.07,West,267,0.0,0.0,56,0.00,,---,0.00,VWS V14.01,2013-02-14 16:13:00,
2013-02-14 09:14:00,33.5,19.2,30.07,West,267,0.0,0.0,55,0.00,,---,0.00,VWS V14.01,2013-02-14 16:14:00,
2013-02-14 09:15:00,33.6,19.2,30.08,West,267,0.0,0.0,55,0.00,,---,0.00,VWS V14.01,2013-02-14 16:15:00,
2013-02-14 09:16:00,33.6,19.2,30.08,West,267,0.0,0.0,55,0.00,,---,0.00,VWS V14.01,2013-02-14 16:16:00,
2013-02-14 09:17:00,33.6,19.2,30.08,West,267,0.0,0.0,55,0.00,,---,0.00,VWS V14.01,2013-02-14 16:17:00,
2013-02-14 09:18:00,33.7,19.2,30.08,West,267,0.0,0.0,55,0.00,,---,0.00,VWS V14.01,2013-02-14 16:18:00,
2013-02-14 09:19:00,33.7,19.2,30.08,West,267,0.0,0.0,55,0.00,,---,0.00,VWS V14.01,2013-02-14 16:19:00,
2013-02-14 09:20:00,33.7,19.2,30.08,West,267,0.0,0.0,55,0.00,,---,0.00,VWS V14.01,2013-02-14 16:20:00,
2013-02-14 09:21:00,33.8,19.3,30.08,West,267,0.0,0.0,55,0.00,,---,0.00,VWS V14.01,2013-02-14 16:21:00,
2013-02-14 09:22:00,33.9,19.2,30.08,West,267,0.0,0.0,54,0.00,,---,0.00,VWS V14.01,2013-02-14 16:22:00,
2013-02-14 09:23:00,33.9,19.1,30.08,West,267,0.0,0.0,54,0.00,,---,0.00,VWS V14.01,2013-02-14 16:23:00,
2013-02-14 09:24:00,33.9,18.9,30.08,West,267,0.0,0.0,54,0.00,,---,0.00,VWS V14.01,2013-02-14 16:24:00,
2013-02-14 09:25:00,34.0,18.8,30.08,West,267,0.0,0.0,53,0.00,,---,0.00,VWS V14.01,2013-02-14 16:25:00,
2013-02-14 09:26:00,34.0,18.7,30.08,West,267,0.0,0.0,53,0.00,,---,0.00,VWS V14.01,2013-02-14 16:26:00,
2013-02-14 09:27:00,34.1,18.7,30.08,West,267,0.0,0.0,53,0.00,,---,0.00,VWS V14.01,2013-02-14 16:27:00,
2013-02-14 09:28:00,34.1,18.7,30.08,West,267,0.0,0.0,53,0.00,,---,0.00,VWS V14.01,2013-02-14 16:28:00,
2013-02-14 09:29:00,34.2,18.7,30.08,West,267,0.0,0.0,53,0.00,,---,0.00,VWS V14.01,2013-02-14 16:29:00,
2013-02-14 09:30:00,34.2,18.7,30.08,West,267,0.0,0.0,53,0.00,,---,0.00,VWS V14.01,2013-02-14 16:30:00,
2013-02-14 09:31:00,34.2,18.6,30.08,West,267,0.0,0.0,52,0.00,,---,0.00,VWS V14.01,2013-02-14 16:31:00,
2013-02-14 09:32:00,34.3,18.5,30.08,West,267,0.0,0.0,52,0.00,,---,0.00,VWS V14.01,2013-02-14 16:32:00,
2013-02-14 09:33:00,34.3,18.4,30.09,West,267,0.0,0.0,52,0.00,,---,0.00,VWS V14.01,2013-02-14 16:33:00,
2013-02-14 09:34:00,34.3,18.2,30.09,West,267,0.0,0.0,51,0.00,,---,0.00,VWS V14.01,2013-02-14 16:34:00,
2013-02-14 09:35:00,34.4,18.2,30.09,West,267,0.0,0.0,51,0.00,,---,0.00,VWS V14.01,2013-02-14 16:35:00,
2013-02-14 09:36:00,34.4,18.2,30.09,West,267,0.0,0.0,51,0.00,,---,0.00,VWS V14.01,2013-02-14 16:36:00,
2013-02-14 09:37:00,34.4,18.2,30.09,NE,38,3.1,5.7,51,0.00,,---,0.00,VWS V14.01,2013-02-14 16:37:00,
2013-02-14 09:38:00,34.4,18.1,30.09,East,79,0.0,0.0,51,0.00,,---,0.00,VWS V14.01,2013-02-14 16:38:00,
2013-02-14 09:39:00,34.4,18.1,30.09,East,79,0.0,0.0,51,0.00,,---,0.00,VWS V14.01,2013-02-14 16:39:00,
2013-02-14 09:40:00,34.4,17.9,30.09,East,79,0.0,0.0,50,0.00,,---,0.00,VWS V14.01,2013-02-14 16:40:00,
2013-02-14 09:41:00,34.5,18.0,30.09,East,79,0.0,0.0,50,0.00,,---,0.00,VWS V14.01,2013-02-14 16:41:00,
2013-02-14 09:42:00,34.5,18.0,30.09,East,79,0.0,0.0,50,0.00,,---,0.00,VWS V14.01,2013-02-14 16:42:00,
2013-02-14 09:43:00,34.5,17.9,30.09,East,79,0.0,0.0,50,0.00,,---,0.00,VWS V14.01,2013-02-14 16:43:00,
2013-02-14 09:44:00,34.6,18.0,30.09,East,79,0.0,0.0,50,0.00,,---,0.00,VWS V14.01,2013-02-14 16:44:00,
2013-02-14 09:45:00,34.6,18.0,30.09,East,79,0.0,0.0,50,0.00,,---,0.00,VWS V14.01,2013-02-14 16:45:00,
2013-02-14 09:46:00,34.7,18.0,30.09,East,79,0.0,0.0,50,0.00,,---,0.00,VWS V14.01,2013-02-14 16:46:00,
2013-02-14 09:47:00,34.7,18.0,30.09,East,79,0.0,0.0,50,0.00,,---,0.00,VWS V14.01,2013-02-14 16:47:00,
2013-02-14 09:48:00,34.8,18.1,30.09,East,79,0.0,0.0,50,0.00,,---,0.00,VWS V14.01,2013-02-14 16:48:00,
2013-02-14 09:49:00,34.9,18.0,30.10,East,79,0.0,0.0,50,0.00,,---,0.00,VWS V14.01,2013-02-14 16:49:00,
2013-02-14 09:50:00,34.9,17.9,30.10,East,79,0.0,0.0,49,0.00,,---,0.00,VWS V14.01,2013-02-14 16:50:00,
2013-02-14 09:51:00,34.9,17.8,30.10,East,79,0.0,0.0,49,0.00,,---,0.00,VWS V14.01,2013-02-14 16:51:00,
2013-02-14 09:52:00,34.9,17.8,30.10,East,79,0.0,0.0,49,0.00,,---,0.00,VWS V14.01,2013-02-14 16:52:00,
2013-02-14 09:53:00,35.0,17.9,30.10,East,79,0.0,0.0,49,0.00,,---,0.00,VWS V14.01,2013-02-14 16:53:00,
2013-02-14 09:54:00,35.0,17.9,30.10,East,79,0.0,0.0,49,0.00,,---,0.00,VWS V14.01,2013-02-14 16:54:00,
2013-02-14 09:55:00,35.1,18.1,30.10,East,79,0.0,0.0,49,0.00,,---,0.00,VWS V14.01,2013-02-14 16:55:00,
2013-02-14 09:56:00,35.1,18.0,30.10,East,79,0.0,0.0,49,0.00,,---,0.00,VWS V14.01,2013-02-14 16:56:00,
2013-02-14 09:57:00,35.1,18.0,30.10,East,79,0.0,0.0,49,0.00,,---,0.00,VWS V14.01,2013-02-14 16:57:00,
2013-02-14 09:58:00,35.2,18.1,30.10,NNE,32,3.5,3.5,49,0.00,,---,0.00,VWS V14.01,2013-02-14 16:58:00,
2013-02-14 09:59:00,35.3,18.2,30.10,NNE,32,0.0,0.0,49,0.00,,---,0.00,VWS V14.01,2013-02-14 16:59:00,
2013-02-14 10:00:00,35.3,18.1,30.10,NNE,32,0.0,0.0,49,0.00,,---,0.00,VWS V14.01,2013-02-14 17:00:00,
2013-02-14 10:01:00,35.4,18.2,30.10,NNE,32,0.0,0.0,49,0.00,,---,0.00,VWS V14.01,2013-02-14 17:01:00,
2013-02-14 10:02:00,35.4,18.2,30.10,NNE,32,0.0,0.0,49,0.00,,---,0.00,VWS V14.01,2013-02-14 17:02:00,
2013-02-14 10:03:00,35.5,18.1,30.10,ESE,103,0.0,3.4,49,0.00,,---,0.00,VWS V14.01,2013-02-14 17:03:00,
2013-02-14 10:04:00,35.5,18.1,30.10,NE,48,0.0,3.2,49,0.00,,---,0.00,VWS V14.01,2013-02-14 17:04:00,
2013-02-14 10:05:00,35.6,18.1,30.10,East,79,7.2,7.2,48,0.00,,---,0.00,VWS V14.01,2013-02-14 17:05:00,
2013-02-14 10:06:00,35.7,18.1,30.10,East,90,8.9,11.1,48,0.00,,---,0.00,VWS V14.01,2013-02-14 17:06:00,
2013-02-14 10:07:00,35.7,18.1,30.10,ESE,110,9.3,9.3,48,0.00,,---,0.00,VWS V14.01,2013-02-14 17:07:00,
2013-02-14 10:08:00,35.7,18.1,30.10,North,11,4.2,5.4,48,0.00,,---,0.00,VWS V14.01,2013-02-14 17:08:00,
2013-02-14 10:09:00,35.8,18.3,30.10,East,80,5.2,5.3,48,0.00,,---,0.00,VWS V14.01,2013-02-14 17:09:00,
2013-02-14 10:10:00,35.8,18.3,30.10,North,10,3.5,9.0,49,0.00,,---,0.00,VWS V14.01,2013-02-14 17:10:00,
2013-02-14 10:11:00,35.9,18.5,30.10,North,7,0.0,0.0,49,0.00,,---,0.00,VWS V14.01,2013-02-14 17:11:00,
2013-02-14 10:12:00,35.8,18.4,30.10,North,7,0.0,3.3,49,0.00,,---,0.00,VWS V14.01,2013-02-14 17:12:00,
2013-02-14 10:13:00,36.1,18.8,30.10,ESE,117,5.8,5.8,49,0.00,,---,0.00,VWS V14.01,2013-02-14 17:13:00,
2013-02-14 10:14:00,36.1,18.8,30.11,NE,38,0.0,3.0,49,0.00,,---,0.00,VWS V14.01,2013-02-14 17:14:00,
2013-02-14 10:15:00,36.3,19.0,30.11,ENE,70,8.5,8.8,49,0.00,,---,0.00,VWS V14.01,2013-02-14 17:15:00,
2013-02-14 10:16:00,36.3,19.0,30.11,ESE,110,4.5,4.5,49,0.00,,---,0.00,VWS V14.01,2013-02-14 17:16:00,
2013-02-14 10:17:00,36.3,19.0,30.11,ESE,110,4.3,4.3,49,0.00,,---,0.00,VWS V14.01,2013-02-14 17:17:00,
2013-02-14 10:18:00,36.2,19.5,30.12,SSE,152,0.0,4.2,50,0.00,,---,0.00,VWS V14.01,2013-02-14 17:18:00,
2013-02-14 10:19:00,36.2,20.0,30.12,SE,142,6.0,8.9,51,0.00,,---,0.00,VWS V14.01,2013-02-14 17:19:00,
2013-02-14 10:20:00,36.2,20.4,30.12,NNW,329,6.0,8.9,52,0.00,,---,0.00,VWS V14.01,2013-02-14 17:20:00,
2013-02-14 10:21:00,36.1,20.7,30.12,ENE,76,5.8,8.1,53,0.00,,---,0.00,VWS V14.01,2013-02-14 17:21:00,
2013-02-14 10:22:00,36.1,20.7,30.12,East,89,8.1,8.1,53,0.00,,---,0.00,VWS V14.01,2013-02-14 17:22:00,
2013-02-14 10:23:00,35.8,21.0,30.12,NNE,27,5.7,7.2,54,0.00,,---,0.00,VWS V14.01,2013-02-14 17:23:00,
2013-02-14 10:24:00,35.7,21.3,30.12,NE,49,5.5,10.4,55,0.00,,---,0.00,VWS V14.01,2013-02-14 17:24:00,
2013-02-14 10:25:00,35.6,21.4,30.12,NE,37,0.0,0.0,56,0.00,,---,0.00,VWS V14.01,2013-02-14 17:25:00,
2013-02-14 10:26:00,35.5,21.5,30.12,ENE,69,5.8,5.8,56,0.00,,---,0.00,VWS V14.01,2013-02-14 17:26:00,
2013-02-14 10:27:00,35.5,21.5,30.12,ENE,69,5.8,5.8,56,0.00,,---,0.00,VWS V14.01,2013-02-14 17:27:00,
2013-02-14 10:28:00,35.3,21.5,30.12,North,8,2.4,5.1,57,0.00,,---,0.00,VWS V14.01,2013-02-14 17:28:00,
2013-02-14 10:29:00,35.2,21.5,30.12,ENE,70,7.5,7.9,57,0.00,,---,0.00,VWS V14.01,2013-02-14 17:29:00,
2013-02-14 10:30:00,35.2,21.7,30.12,ENE,76,6.2,11.1,57,0.00,,---,0.00,VWS V14.01,2013-02-14 17:30:00,
2013-02-14 10:31:00,35.1,21.7,30.12,SSE,158,0.0,0.0,58,0.00,,---,0.00,VWS V14.01,2013-02-14 17:31:00,
2013-02-14 10:32:00,35.1,21.7,30.12,SSE,158,0.0,4.3,58,0.00,,---,0.00,VWS V14.01,2013-02-14 17:32:00,
2013-02-14 10:33:00,35.1,21.8,30.12,ENE,60,5.6,7.3,58,0.00,,---,0.00,VWS V14.01,2013-02-14 17:33:00,
2013-02-14 10:34:00,35.2,22.0,30.12,East,84,5.0,10.3,58,0.00,,---,0.00,VWS V14.01,2013-02-14 17:34:00,
2013-02-14 10:35:00,35.2,22.0,30.12,SE,145,5.6,7.1,58,0.00,,---,0.00,VWS V14.01,2013-02-14 17:35:00,
2013-02-14 10:36:00,35.3,22.2,30.12,ENE,59,6.2,7.1,58,0.00,,---,0.00,VWS V14.01,2013-02-14 17:36:00,
2013-02-14 10:37:00,35.3,22.2,30.12,ENE,59,6.2,7.1,58,0.00,,---,0.00,VWS V14.01,2013-02-14 17:37:00,
2013-02-14 10:38:00,35.3,22.0,30.12,NE,56,9.5,9.5,58,0.00,,---,0.00,VWS V14.01,2013-02-14 17:38:00,
2013-02-14 10:39:00,35.3,22.0,30.12,ENE,58,10.4,11.1,58,0.00,,---,0.00,VWS V14.01,2013-02-14 17:39:00,
2013-02-14 10:40:00,35.3,22.0,30.12,ENE,76,0.0,4.3,58,0.00,,---,0.00,VWS V14.01,2013-02-14 17:40:00,
2013-02-14 10:41:00,35.4,22.1,30.12,NNE,25,0.0,0.0,58,0.00,,---,0.00,VWS V14.01,2013-02-14 17:41:00,
2013-02-14 10:42:00,35.4,22.1,30.13,NNE,25,0.0,0.0,58,0.00,,---,0.00,VWS V14.01,2013-02-14 17:42:00,
2013-02-14 10:43:00,35.4,22.0,30.13,ESE,108,7.1,9.0,58,0.00,,---,0.00,VWS V14.01,2013-02-14 17:43:00,
2013-02-14 10:44:00,35.4,21.9,30.13,NE,48,7.3,9.6,58,0.00,,---,0.00,VWS V14.01,2013-02-14 17:44:00,
2013-02-14 10:45:00,35.4,21.9,30.13,ENE,59,3.5,3.5,58,0.00,,---,0.00,VWS V14.01,2013-02-14 17:45:00,
2013-02-14 10:46:00,35.5,22.0,30.14,ENE,68,6.8,13.3,58,0.00,,---,0.00,VWS V14.01,2013-02-14 17:46:00,
2013-02-14 10:47:00,35.5,22.0,30.14,ENE,68,6.8,13.3,58,0.00,,---,0.00,VWS V14.01,2013-02-14 17:47:00,
2013-02-14 10:48:00,35.5,22.0,30.14,NE,34,7.9,15.0,58,0.00,,---,0.00,VWS V14.01,2013-02-14 17:48:00,
2013-02-14 10:49:00,35.5,22.4,30.14,East,91,17.8,18.1,58,0.00,,---,0.00,VWS V14.01,2013-02-14 17:49:00,
2013-02-14 10:50:00,35.4,22.7,30.14,East,86,9.7,18.5,59,0.00,,---,0.00,VWS V14.01,2013-02-14 17:50:00,
2013-02-14 10:51:00,35.3,23.3,30.14,NE,52,17.6,18.6,61,0.00,,---,0.00,VWS V14.01,2013-02-14 17:51:00,
2013-02-14 10:52:00,35.3,23.3,30.14,NE,52,17.6,18.6,61,0.00,,---,0.00,VWS V14.01,2013-02-14 17:52:00,
2013-02-14 10:53:00,34.8,23.7,30.15,NNE,25,7.2,17.8,64,0.00,,---,0.00,VWS V14.01,2013-02-14 17:53:00,
2013-02-14 10:54:00,34.5,23.8,30.15,ENE,70,6.6,13.2,65,0.00,,---,0.00,VWS V14.01,2013-02-14 17:54:00,
2013-02-14 10:55:00,34.1,23.9,30.16,East,86,19.8,19.8,66,0.00,,---,0.00,VWS V14.01,2013-02-14 17:55:00,
2013-02-14 10:56:00,33.8,24.1,30.16,NNE,30,5.6,9.0,67,0.00,,---,0.00,VWS V14.01,2013-02-14 17:56:00,
2013-02-14 10:57:00,33.8,24.1,30.15,NNE,30,5.6,9.0,67,0.00,,---,0.00,VWS V14.01,2013-02-14 17:57:00,
2013-02-14 10:58:00,33.3,24.2,30.16,NE,42,11.7,16.6,69,0.00,,---,0.00,VWS V14.01,2013-02-14 17:58:00,
2013-02-14 10:59:00,32.9,24.2,30.16,SE,129,7.8,13.0,70,0.00,,---,0.00,VWS V14.01,2013-02-14 17:59:00,
2013-02-14 11:00:00,32.7,24.2,30.16,ESE,120,7.8,10.6,71,0.00,,---,0.00,VWS V14.01,2013-02-14 18:00:00,
2013-02-14 11:01:00,32.4,24.2,30.16,NE,56,8.7,9.9,71,0.00,,---,0.00,VWS V14.01,2013-02-14 18:01:00,
2013-02-14 11:02:00,32.4,24.2,30.16,NE,56,8.7,9.9,71,0.00,,---,0.00,VWS V14.01,2013-02-14 18:02:00,
2013-02-14 11:03:00,32.1,24.2,30.17,SE,134,10.6,12.7,72,0.00,,---,0.00,VWS V14.01,2013-02-14 18:03:00,
2013-02-14 11:04:00,31.8,24.2,30.17,NNE,22,15.3,16.3,73,0.00,,---,0.00,VWS V14.01,2013-02-14 18:04:00,
2013-02-14 11:05:00,31.6,24.0,30.17,NNE,28,11.7,13.9,73,0.00,,---,0.00,VWS V14.01,2013-02-14 18:05:00,
2013-02-14 11:06:00,31.4,24.0,30.17,NE,48,12.6,15.1,74,0.00,,---,0.00,VWS V14.01,2013-02-14 18:06:00,
2013-02-14 11:07:00,31.4,24.0,30.17,NE,48,12.6,15.1,74,0.00,,---,0.00,VWS V14.01,2013-02-14 18:07:00,
2013-02-14 11:08:00,31.0,24.0,30.17,ESE,112,9.6,15.5,75,0.00,,---,0.00,VWS V14.01,2013-02-14 18:08:00,
2013-02-14 11:09:00,27.0,23.2,30.22,NNE,31,12.5,12.5,85,0.00,,---,0.00,VWS V14.01,2013-02-14 18:09:00,
2013-02-14 11:10:00,26.9,23.0,30.22,NE,37,6.6,12.1,85,0.00,,---,0.00,VWS V14.01,2013-02-14 18:10:00,
2013-02-14 11:11:00,26.9,23.1,30.22,East,82,6.9,9.4,85,0.00,,---,0.00,VWS V14.01,2013-02-14 18:11:00,
2013-02-14 11:12:00,30.5,24.0,30.18,NE,46,13.5,13.5,76,0.00,,---,0.00,VWS V14.01,2013-02-14 18:12:00,
2013-02-14 11:13:00,26.8,23.0,30.22,NE,42,7.1,10.3,86,0.00,,---,0.00,VWS V14.01,2013-02-14 18:13:00,
2013-02-14 11:14:00,26.8,23.1,30.22,North,7,7.4,7.8,86,0.00,,---,0.00,VWS V14.01,2013-02-14 18:14:00,
2013-02-14 11:15:00,26.9,23.2,30.22,ESE,114,8.4,9.9,86,0.00,,---,0.00,VWS V14.01,2013-02-14 18:15:00,
2013-02-14 11:16:00,26.9,23.3,30.22,ENE,77,8.3,9.9,86,0.00,,---,0.00,VWS V14.01,2013-02-14 18:16:00,
2013-02-14 11:17:00,26.9,23.3,30.23,NE,42,15.7,15.9,86,0.00,,---,0.00,VWS V14.01,2013-02-14 18:17:00,
2013-02-14 11:18:00,29.7,23.7,30.19,East,90,7.6,7.6,78,0.00,,---,0.00,VWS V14.01,2013-02-14 18:18:00,
2013-02-14 11:19:00,26.9,23.4,30.23,SSE,162,4.5,4.8,86,0.00,,---,0.00,VWS V14.01,2013-02-14 18:19:00,
2013-02-14 11:20:00,27.0,23.5,30.22,SSE,156,4.1,6.2,87,0.00,,---,0.00,VWS V14.01,2013-02-14 18:20:00,
2013-02-14 11:21:00,27.1,23.7,30.23,ESE,118,6.1,6.2,87,0.00,,---,0.00,VWS V14.01,2013-02-14 18:21:00,
2013-02-14 11:22:00,27.1,23.7,30.23,East,90,6.3,6.8,87,0.00,,---,0.00,VWS V14.01,2013-02-14 18:22:00,
2013-02-14 11:23:00,29.6,23.8,30.20,ENE,72,20.3,20.3,79,0.00,,---,0.00,VWS V14.01,2013-02-14 18:23:00,
2013-02-14 11:24:00,27.2,23.7,30.23,SSE,159,6.6,9.4,86,0.00,,---,0.00,VWS V14.01,2013-02-14 18:24:00,
2013-02-14 11:25:00,27.2,23.7,30.23,East,87,5.9,8.1,86,0.00,,---,0.00,VWS V14.01,2013-02-14 18:25:00,
2013-02-14 11:26:00,27.2,23.7,30.23,NE,52,4.8,7.3,87,0.00,,---,0.00,VWS V14.01,2013-02-14 18:26:00,
2013-02-14 11:27:00,27.3,23.8,30.23,ESE,114,6.0,6.7,87,0.00,,---,0.00,VWS V14.01,2013-02-14 18:27:00,
2013-02-14 11:28:00,29.4,23.6,30.20,NNE,32,6.5,9.4,79,0.00,,---,0.00,VWS V14.01,2013-02-14 18:28:00,
2013-02-14 11:29:00,27.4,24.0,30.23,SE,129,8.5,9.4,87,0.00,,---,0.00,VWS V14.01,2013-02-14 18:29:00,
2013-02-14 11:30:00,27.5,24.1,30.23,ENE,73,7.3,10.3,87,0.00,,---,0.00,VWS V14.01,2013-02-14 18:30:00,
2013-02-14 11:31:00,27.4,23.9,30.23,ENE,72,5.0,6.7,86,0.00,,---,0.00,VWS V14.01,2013-02-14 18:31:00,
2013-02-14 11:32:00,27.5,24.0,30.23,NE,56,0.0,4.3,86,0.00,,---,0.00,VWS V14.01,2013-02-14 18:32:00,
2013-02-14 11:33:00,29.0,23.0,30.20,East,79,9.3,11.3,78,0.00,,---,0.00,VWS V14.01,2013-02-14 18:33:00,
2013-02-14 11:34:00,27.4,23.9,30.23,ENE,73,7.4,9.8,86,0.00,,---,0.00,VWS V14.01,2013-02-14 18:34:00,
2013-02-14 11:35:00,27.4,23.9,30.23,ESE,108,4.8,7.1,86,0.00,,---,0.00,VWS V14.01,2013-02-14 18:35:00,
2013-02-14 11:36:00,27.4,23.9,30.23,ENE,68,7.6,8.3,87,0.00,,---,0.00,VWS V14.01,2013-02-14 18:36:00,
2013-02-14 11:37:00,27.4,23.9,30.23,ENE,68,3.4,5.0,87,0.00,,---,0.00,VWS V14.01,2013-02-14 18:37:00,
2013-02-14 11:38:00,28.8,22.8,30.21,ESE,105,5.3,9.4,78,0.00,,---,0.00,VWS V14.01,2013-02-14 18:38:00,
2013-02-14 11:39:00,27.3,23.7,30.23,NE,46,0.0,10.9,86,0.00,,---,0.00,VWS V14.01,2013-02-14 18:39:00,
2013-02-14 11:40:00,27.3,23.7,30.23,NE,46,0.0,0.0,86,0.00,,---,0.00,VWS V14.01,2013-02-14 18:40:00,
2013-02-14 11:41:00,27.3,23.8,30.23,SE,142,7.0,8.9,86,0.00,,---,0.00,VWS V14.01,2013-02-14 18:41:00,
2013-02-14 11:42:00,27.2,23.6,30.23,SE,141,8.4,13.9,86,0.00,,---,0.00,VWS V14.01,2013-02-14 18:42:00,
2013-02-14 11:43:00,28.5,22.7,30.21,NE,46,6.5,12.0,79,0.00,,---,0.00,VWS V14.01,2013-02-14 18:43:00,
2013-02-14 11:44:00,27.1,23.6,30.23,ENE,77,6.8,6.8,86,0.00,,---,0.00,VWS V14.01,2013-02-14 18:44:00,
2013-02-14 11:45:00,27.2,23.7,30.23,ESE,108,5.0,6.6,87,0.00,,---,0.00,VWS V14.01,2013-02-14 18:45:00,
2013-02-14 11:46:00,27.2,23.8,30.23,NE,34,4.7,8.7,87,0.00,,---,0.00,VWS V14.01,2013-02-14 18:46:00,
2013-02-14 11:47:00,27.2,23.7,30.23,ENE,76,9.8,9.8,87,0.00,,---,0.00,VWS V14.01,2013-02-14 18:47:00,
2013-02-14 11:48:00,28.3,23.1,30.22,ENE,60,8.7,11.2,81,0.00,,---,0.00,VWS V14.01,2013-02-14 18:48:00,
2013-02-14 11:49:00,27.3,23.8,30.23,ESE,111,4.9,5.6,86,0.00,,---,0.00,VWS V14.01,2013-02-14 18:49:00,
2013-02-14 11:50:00,27.3,23.8,30.23,SE,145,5.0,7.6,86,0.00,,---,0.00,VWS V14.01,2013-02-14 18:50:00,
2013-02-14 11:51:00,27.4,23.9,30.23,ENE,70,7.3,7.3,86,0.00,,---,0.00,VWS V14.01,2013-02-14 18:51:00,
2013-02-14 11:52:00,27.5,23.9,30.23,ENE,58,6.3,10.6,86,0.00,,---,0.00,VWS V14.01,2013-02-14 18:52:00,
2013-02-14 11:53:00,28.0,23.4,30.22,ESE,115,8.9,9.6,82,0.00,,---,0.00,VWS V14.01,2013-02-14 18:53:00,
2013-02-14 11:54:00,27.4,23.8,30.23,SSE,152,7.7,12.2,86,0.00,,---,0.00,VWS V14.01,2013-02-14 18:54:00,
2013-02-14 11:55:00,27.4,23.8,30.23,ENE,65,9.1,10.1,86,0.00,,---,0.00,VWS V14.01,2013-02-14 18:55:00,
2013-02-14 11:56:00,27.4,23.8,30.23,ENE,66,2.6,3.2,86,0.00,,---,0.00,VWS V14.01,2013-02-14 18:56:00,
2013-02-14 11:57:00,27.4,23.9,30.23,ENE,59,0.0,3.3,86,0.00,,---,0.00,VWS V14.01,2013-02-14 18:57:00,
2013-02-14 11:58:00,27.7,23.5,30.22,SSE,153,4.9,5.8,84,0.00,,---,0.00,VWS V14.01,2013-02-14 18:58:00,
2013-02-14 11:59:00,27.5,24.1,30.23,NNE,27,0.0,5.0,87,0.00,,---,0.00,VWS V14.01,2013-02-14 18:59:00,
2013-02-14 12:00:00,27.5,24.2,30.23,ESE,120,10.9,14.2,87,0.00,,---,0.00,VWS V14.01,2013-02-14 19:00:00,
2013-02-14 12:01:00,27.4,24.0,30.23,ESE,104,9.4,9.9,87,0.00,,---,0.00,VWS V14.01,2013-02-14 19:01:00,
2013-02-14 12:02:00,27.5,24.0,30.23,NE,53,9.4,10.4,86,0.00,,---,0.00,VWS V14.01,2013-02-14 19:02:00,
2013-02-14 12:03:00,27.3,23.7,30.23,SE,129,3.4,4.5,86,0.00,,---,0.00,VWS V14.01,2013-02-14 19:03:00,
2013-02-14 12:04:00,27.4,23.4,30.22,East,86,9.6,16.4,85,0.00,,---,0.00,VWS V14.01,2013-02-14 19:04:00,
2013-02-14 12:05:00,27.2,23.8,30.23,SE,127,5.0,6.0,87,0.00,,---,0.00,VWS V14.01,2013-02-14 19:05:00,
2013-02-14 12:06:00,27.3,23.9,30.23,ESE,115,4.7,8.1,87,0.00,,---,0.00,VWS V14.01,2013-02-14 19:06:00,
2013-02-14 12:07:00,27.2,23.8,30.23,East,89,0.0,0.0,87,0.00,,---,0.00,VWS V14.01,2013-02-14 19:07:00,
2013-02-14 12:08:00,27.2,23.9,30.23,South,169,6.3,7.1,87,0.00,,---,0.00,VWS V14.01,2013-02-14 19:08:00,
2013-02-14 12:09:00,27.1,23.3,30.22,ENE,70,4.9,6.3,85,0.00,,---,0.00,VWS V14.01,2013-02-14 19:09:00,
2013-02-14 12:10:00,27.3,24.0,30.23,SE,131,0.0,0.0,87,0.00,,---,0.00,VWS V14.01,2013-02-14 19:10:00,
2013-02-14 12:11:00,27.3,24.0,30.23,SE,131,0.0,0.0,87,0.00,,---,0.00,VWS V14.01,2013-02-14 19:11:00,
2013-02-14 12:12:00,27.3,24.0,30.23,SE,131,0.0,0.0,87,0.00,,---,0.00,VWS V14.01,2013-02-14 19:12:00,
2013-02-14 12:13:00,27.3,24.0,30.23,SE,131,0.0,0.0,87,0.00,,---,0.00,VWS V14.01,2013-02-14 19:13:00,
2013-02-14 12:14:00,26.8,23.0,30.22,NNE,27,8.4,8.4,86,0.00,,---,0.00,VWS V14.01,2013-02-14 19:14:00,
2013-02-14 12:15:00,27.3,24.0,30.23,SE,131,0.0,0.0,87,0.00,,---,0.00,VWS V14.01,2013-02-14 19:15:00,
2013-02-14 12:16:00,27.3,24.0,30.23,North,359,5.3,11.1,87,0.00,,---,0.00,VWS V14.01,2013-02-14 19:16:00,
2013-02-14 12:17:00,27.3,24.1,30.23,NNE,24,4.4,7.9,87,0.00,,---,0.00,VWS V14.01,2013-02-14 19:17:00,
2013-02-14 12:18:00,27.2,24.0,30.23,ENE,65,6.8,6.8,87,0.00,,---,0.00,VWS V14.01,2013-02-14 19:18:00,
2013-02-14 12:19:00,26.9,23.4,30.23,East,96,7.0,8.3,86,0.00,,---,0.00,VWS V14.01,2013-02-14 19:19:00,
2013-02-14 12:20:00,27.2,24.0,30.23,NE,39,9.9,11.7,88,0.00,,---,0.00,VWS V14.01,2013-02-14 19:20:00,
2013-02-14 12:21:00,27.2,24.0,30.23,East,96,6.6,6.6,87,0.00,,---,0.00,VWS V14.01,2013-02-14 19:21:00,
2013-02-14 12:22:00,27.1,23.9,30.23,NE,45,7.1,7.4,88,0.00,,---,0.00,VWS V14.01,2013-02-14 19:22:00,
2013-02-14 12:23:00,27.0,23.8,30.23,ENE,72,0.0,0.0,87,0.00,,---,0.00,VWS V14.01,2013-02-14 19:23:00,
2013-02-14 12:24:00,27.2,23.7,30.23,SE,129,6.3,12.7,87,0.00,,---,0.00,VWS V14.01,2013-02-14 19:24:00,
2013-02-14 12:25:00,26.9,23.7,30.24,ENE,63,0.0,0.0,88,0.00,,---,0.00,VWS V14.01,2013-02-14 19:25:00,
2013-02-14 12:26:00,27.0,23.9,30.24,NE,55,4.8,8.1,88,0.00,,---,0.00,VWS V14.01,2013-02-14 19:26:00,
2013-02-14 12:27:00,27.1,24.0,30.23,East,96,7.3,7.6,88,0.00,,---,0.00,VWS V14.01,2013-02-14 19:27:00,
2013-02-14 12:28:00,27.1,23.9,30.24,ENE,60,3.3,3.3,88,0.00,,---,0.00,VWS V14.01,2013-02-14 19:28:00,
2013-02-14 12:29:00,27.4,24.0,30.23,NE,34,0.0,0.0,87,0.00,,---,0.00,VWS V14.01,2013-02-14 19:29:00,
2013-02-14 12:30:00,27.2,24.0,30.24,East,87,0.0,5.3,88,0.00,,---,0.00,VWS V14.01,2013-02-14 19:30:00,
2013-02-14 12:31:00,27.2,24.0,30.23,ESE,104,4.8,9.4,88,0.00,,---,0.00,VWS V14.01,2013-02-14 19:31:00,
2013-02-14 12:32:00,27.2,24.0,30.23,ESE,108,0.0,0.0,88,0.00,,---,0.00,VWS V14.01,2013-02-14 19:32:00,
2013-02-14 12:33:00,27.3,24.1,30.24,ESE,112,3.1,4.2,88,0.00,,---,0.00,VWS V14.01,2013-02-14 19:33:00,
2013-02-14 12:34:00,27.5,24.0,30.23,ENE,69,8.6,8.6,86,0.00,,---,0.00,VWS V14.01,2013-02-14 19:34:00,
2013-02-14 12:35:00,27.3,24.1,30.24,ESE,112,0.0,0.0,87,0.00,,---,0.00,VWS V14.01,2013-02-14 19:35:00,
2013-02-14 12:36:00,27.4,24.2,30.24,NE,48,4.4,7.0,88,0.00,,---,0.00,VWS V14.01,2013-02-14 19:36:00,
2013-02-14 12:37:00,27.4,24.2,30.24,ENE,68,8.8,9.5,87,0.00,,---,0.00,VWS V14.01,2013-02-14 19:37:00,
2013-02-14 12:38:00,27.2,23.9,30.24,ENE,77,6.8,9.1,87,0.00,,---,0.00,VWS V14.01,2013-02-14 19:38:00,
2013-02-14 12:39:00,27.4,23.9,30.23,NE,35,12.3,13.5,86,0.00,,---,0.00,VWS V14.01,2013-02-14 19:39:00,
2013-02-14 12:40:00,27.2,23.9,30.24,ESE,103,6.1,6.6,87,0.00,,---,0.00,VWS V14.01,2013-02-14 19:40:00,
2013-02-14 12:41:00,27.3,23.8,30.23,SE,142,7.0,8.9,86,0.00,,---,0.00,VWS V14.01,2013-02-14 19:41:00,
2013-02-14 12:42:00,27.1,23.8,30.24,East,101,3.2,3.3,87,0.00,,---,0.00,VWS V14.01,2013-02-14 19:42:00,
2013-02-14 12:43:00,27.1,23.9,30.24,East,91,4.3,5.6,88,0.00,,---,0.00,VWS V14.01,2013-02-14 19:43:00,
2013-02-14 12:44:00,27.1,23.5,30.23,ESE,117,0.0,6.6,86,0.00,,---,0.00,VWS V14.01,2013-02-14 19:44:00,
2013-02-14 12:45:00,27.2,23.7,30.23,ESE,108,5.0,6.6,87,0.00,,---,0.00,VWS V14.01,2013-02-14 19:45:00,
2013-02-14 12:46:00,27.2,23.8,30.23,NE,34,4.7,8.7,87,0.00,,---,0.00,VWS V14.01,2013-02-14 19:46:00,
2013-02-14 12:47:00,27.2,23.7,30.23,ENE,76,9.8,9.8,87,0.00,,---,0.00,VWS V14.01,2013-02-14 19:47:00,
2013-02-14 12:48:00,27.3,23.8,30.23,ENE,65,6.4,9.5,86,0.00,,---,0.00,VWS V14.01,2013-02-14 19:48:00,
2013-02-14 12:49:00,27.2,23.7,30.23,NE,46,6.6,9.5,86,0.00,,---,0.00,VWS V14.01,2013-02-14 19:49:00,
2013-02-14 12:50:00,27.3,23.8,30.23,SE,145,5.0,7.6,86,0.00,,---,0.00,VWS V14.01,2013-02-14 19:50:00,
2013-02-14 12:51:00,27.4,23.9,30.23,ENE,70,7.3,7.3,86,0.00,,---,0.00,VWS V14.01,2013-02-14 19:51:00,
2013-02-14 12:52:00,27.5,23.9,30.23,ENE,58,6.3,10.6,86,0.00,,---,0.00,VWS V14.01,2013-02-14 19:52:00,
2013-02-14 12:53:00,27.5,23.9,30.23,ENE,68,0.0,0.0,86,0.00,,---,0.00,VWS V14.01,2013-02-14 19:53:00,
2013-02-14 12:54:00,27.5,23.9,30.23,ENE,68,0.0,0.0,86,0.00,,---,0.00,VWS V14.01,2013-02-14 19:54:00,
2013-02-14 12:55:00,27.4,23.8,30.23,ENE,65,9.1,10.1,86,0.00,,---,0.00,VWS V14.01,2013-02-14 19:55:00,
2013-02-14 12:56:00,27.4,23.8,30.23,ENE,66,2.6,3.2,86,0.00,,---,0.00,VWS V14.01,2013-02-14 19:56:00,
2013-02-14 12:57:00,27.4,23.9,30.23,ENE,59,0.0,3.3,86,0.00,,---,0.00,VWS V14.01,2013-02-14 19:57:00,
2013-02-14 12:58:00,27.4,24.0,30.23,SSE,149,6.5,7.4,87,0.00,,---,0.00,VWS V14.01,2013-02-14 19:58:00,
2013-02-14 12:59:00,27.4,23.9,30.23,SE,127,5.6,9.1,87,0.00,,---,0.00,VWS V14.01,2013-02-14 19:59:00,
2013-02-14 13:00:00,27.5,24.2,30.23,ESE,120,10.9,14.2,87,0.00,,---,0.00,VWS V14.01,2013-02-14 20:00:00,
2013-02-14 13:01:00,27.4,24.0,30.23,ESE,104,9.4,9.9,87,0.00,,---,0.00,VWS V14.01,2013-02-14 20:01:00,
2013-02-14 13:02:00,27.5,24.0,30.23,NE,53,9.4,10.4,86,0.00,,---,0.00,VWS V14.01,2013-02-14 20:02:00,
2013-02-14 13:03:00,27.3,23.7,30.23,SE,129,3.4,4.5,86,0.00,,---,0.00,VWS V14.01,2013-02-14 20:03:00,
2013-02-14 13:04:00,27.3,23.8,30.23,SE,129,3.4,5.9,86,0.00,,---,0.00,VWS V14.01,2013-02-14 20:04:00,
2013-02-14 13:05:00,27.2,23.8,30.23,SE,127,5.0,6.0,87,0.00,,---,0.00,VWS V14.01,2013-02-14 20:05:00,
2013-02-14 13:06:00,27.3,23.9,30.23,ESE,115,4.7,8.1,87,0.00,,---,0.00,VWS V14.01,2013-02-14 20:06:00,
2013-02-14 13:07:00,27.2,23.8,30.23,East,89,0.0,0.0,87,0.00,,---,0.00,VWS V14.01,2013-02-14 20:07:00,
2013-02-14 13:08:00,27.2,23.9,30.23,South,169,6.3,7.1,87,0.00,,---,0.00,VWS V14.01,2013-02-14 20:08:00,
2013-02-14 13:09:00,27.2,23.9,30.23,SSE,149,5.4,6.8,87,0.00,,---,0.00,VWS V14.01,2013-02-14 20:09:00,
2013-02-14 13:10:00,27.3,24.0,30.23,SE,131,0.0,0.0,87,0.00,,---,0.00,VWS V14.01,2013-02-14 20:10:00,
2013-02-14 13:11:00,27.3,24.0,30.23,SE,131,0.0,0.0,87,0.00,,---,0.00,VWS V14.01,2013-02-14 20:11:00,
2013-02-14 13:12:00,27.3,24.0,30.23,SE,131,0.0,0.0,87,0.00,,---,0.00,VWS V14.01,2013-02-14 20:12:00,
2013-02-14 13:13:00,27.3,24.0,30.23,SE,131,0.0,0.0,87,0.00,,---,0.00,VWS V14.01,2013-02-14 20:13:00,
2013-02-14 13:14:00,27.3,24.0,30.23,SE,131,0.0,0.0,87,0.00,,---,0.00,VWS V14.01,2013-02-14 20:14:00,
2013-02-14 13:15:00,27.3,24.0,30.23,SE,131,0.0,0.0,87,0.00,,---,0.00,VWS V14.01,2013-02-14 20:15:00,
2013-02-14 13:16:00,27.3,24.0,30.23,North,359,5.3,11.1,87,0.00,,---,0.00,VWS V14.01,2013-02-14 20:16:00,
2013-02-14 13:17:00,27.3,24.1,30.23,NNE,24,4.4,7.9,87,0.00,,---,0.00,VWS V14.01,2013-02-14 20:17:00,
2013-02-14 13:18:00,27.2,24.0,30.23,ENE,65,6.8,6.8,87,0.00,,---,0.00,VWS V14.01,2013-02-14 20:18:00,
2013-02-14 13:19:00,27.2,24.0,30.23,ENE,65,6.8,6.8,87,0.00,,---,0.00,VWS V14.01,2013-02-14 20:19:00,
2013-02-14 13:20:00,27.2,24.0,30.23,NE,39,9.9,11.7,88,0.00,,---,0.00,VWS V14.01,2013-02-14 20:20:00,
2013-02-14 13:21:00,27.2,24.0,30.23,East,96,6.6,6.6,87,0.00,,---,0.00,VWS V14.01,2013-02-14 20:21:00,
2013-02-14 13:22:00,27.1,23.9,30.23,NE,45,7.1,7.4,88,0.00,,---,0.00,VWS V14.01,2013-02-14 20:22:00,
2013-02-14 13:23:00,27.0,23.8,30.23,ENE,72,0.0,0.0,87,0.00,,---,0.00,VWS V14.01,2013-02-14 20:23:00,
2013-02-14 13:24:00,27.0,23.8,30.23,ENE,72,0.0,0.0,87,0.00,,---,0.00,VWS V14.01,2013-02-14 20:24:00,
2013-02-14 13:25:00,26.9,23.7,30.24,ENE,63,0.0,0.0,88,0.00,,---,0.00,VWS V14.01,2013-02-14 20:25:00,
2013-02-14 13:26:00,27.0,23.9,30.24,NE,55,4.8,8.1,88,0.00,,---,0.00,VWS V14.01,2013-02-14 20:26:00,
2013-02-14 13:27:00,27.1,24.0,30.23,East,96,7.3,7.6,88,0.00,,---,0.00,VWS V14.01,2013-02-14 20:27:00,
2013-02-14 13:28:00,27.1,23.9,30.24,ENE,60,3.3,3.3,88,0.00,,---,0.00,VWS V14.01,2013-02-14 20:28:00,
2013-02-14 13:29:00,27.1,23.9,30.24,ENE,60,3.3,3.3,88,0.00,,---,0.00,VWS V14.01,2013-02-14 20:29:00,
2013-02-14 13:30:00,27.2,24.0,30.24,East,87,0.0,5.3,88,0.00,,---,0.00,VWS V14.01,2013-02-14 20:30:00,
2013-02-14 13:31:00,27.2,24.0,30.23,ESE,104,4.8,9.4,88,0.00,,---,0.00,VWS V14.01,2013-02-14 20:31:00,
2013-02-14 13:32:00,27.2,24.0,30.23,ESE,108,0.0,0.0,88,0.00,,---,0.00,VWS V14.01,2013-02-14 20:32:00,
2013-02-14 13:33:00,27.3,24.1,30.24,ESE,112,3.1,4.2,88,0.00,,---,0.00,VWS V14.01,2013-02-14 20:33:00,
2013-02-14 13:34:00,27.3,24.1,30.24,ESE,112,3.1,4.2,88,0.00,,---,0.00,VWS V14.01,2013-02-14 20:34:00,
2013-02-14 13:35:00,27.3,24.1,30.24,ESE,112,0.0,0.0,87,0.00,,---,0.00,VWS V14.01,2013-02-14 20:35:00,
2013-02-14 13:36:00,27.4,24.2,30.24,NE,48,4.4,7.0,88,0.00,,---,0.00,VWS V14.01,2013-02-14 20:36:00,
2013-02-14 13:37:00,27.4,24.2,30.24,ENE,68,8.8,9.5,87,0.00,,---,0.00,VWS V14.01,2013-02-14 20:37:00,
2013-02-14 13:38:00,27.2,23.9,30.24,ENE,77,6.8,9.1,87,0.00,,---,0.00,VWS V14.01,2013-02-14 20:38:00,
2013-02-14 13:39:00,27.2,23.9,30.24,ENE,77,6.8,9.1,87,0.00,,---,0.00,VWS V14.01,2013-02-14 20:39:00,
2013-02-14 13:40:00,27.2,23.9,30.24,ESE,103,6.1,6.6,87,0.00,,---,0.00,VWS V14.01,2013-02-14 20:40:00,
2013-02-14 13:41:00,27.2,23.9,30.24,ENE,76,0.0,0.0,87,0.00,,---,0.00,VWS V14.01,2013-02-14 20:41:00,
2013-02-14 13:42:00,27.1,23.8,30.24,East,101,3.2,3.3,87,0.00,,---,0.00,VWS V14.01,2013-02-14 20:42:00,
2013-02-14 13:43:00,27.1,23.9,30.24,East,91,4.3,5.6,88,0.00,,---,0.00,VWS V14.01,2013-02-14 20:43:00,
2013-02-14 13:44:00,27.1,23.9,30.24,East,91,4.3,5.6,88,0.00,,---,0.00,VWS V14.01,2013-02-14 20:44:00,
2013-02-14 13:49:00,27.3,24.2,30.24,East,90,0.0,0.0,88,0.01,,---,0.01,VWS V14.01,2013-02-14 20:49:00,
2013-02-14 13:54:00,27.7,24.6,30.24,ENE,68,0.0,0.0,88,0.01,,---,0.01,VWS V14.01,2013-02-14 20:54:00,
2013-02-14 13:59:00,27.8,24.5,30.24,SE,124,7.8,7.8,87,0.01,,---,0.01,VWS V14.01,2013-02-14 20:59:00,
2013-02-14 14:04:00,27.3,24.1,30.25,East,87,0.0,0.0,88,0.01,,---,0.01,VWS V14.01,2013-02-14 21:04:00,
2013-02-14 14:09:00,27.0,24.1,30.25,East,87,0.0,0.0,89,0.01,,---,0.01,VWS V14.01,2013-02-14 21:09:00,
2013-02-14 14:14:00,27.3,24.3,30.25,NE,44,0.0,3.5,88,0.01,,---,0.01,VWS V14.01,2013-02-14 21:14:00,
2013-02-14 14:19:00,27.3,24.2,30.25,ENE,76,0.0,0.0,88,0.01,,---,0.01,VWS V14.01,2013-02-14 21:19:00,
2013-02-14 14:24:00,27.4,24.4,30.25,ENE,76,0.0,0.0,88,0.01,,---,0.01,VWS V14.01,2013-02-14 21:24:00,
2013-02-14 14:29:00,27.8,24.7,30.25,SE,139,5.1,7.0,88,0.01,,---,0.01,VWS V14.01,2013-02-14 21:29:00,
2013-02-14 14:34:00,28.4,25.1,30.25,East,100,0.0,0.0,87,0.01,,---,0.01,VWS V14.01,2013-02-14 21:34:00,
2013-02-14 14:39:00,28.6,24.8,30.26,East,89,0.0,0.0,86,0.01,,---,0.01,VWS V14.01,2013-02-14 21:39:00,
2013-02-14 14:44:00,28.3,24.5,30.26,East,89,0.0,0.0,86,0.01,,---,0.01,VWS V14.01,2013-02-14 21:44:00,
2013-02-14 14:49:00,28.4,24.7,30.26,East,89,0.0,0.0,86,0.01,,---,0.01,VWS V14.01,2013-02-14 21:49:00,
2013-02-14 14:54:00,28.2,24.3,30.26,East,89,0.0,0.0,85,0.01,,---,0.01,VWS V14.01,2013-02-14 21:54:00,
2013-02-14 14:59:00,28.3,24.3,30.26,East,89,0.0,0.0,85,0.01,,---,0.01,VWS V14.01,2013-02-14 21:59:00,
2013-02-14 15:04:00,28.3,24.4,30.26,East,89,0.0,0.0,85,0.01,,---,0.01,VWS V14.01,2013-02-14 22:04:00,
2013-02-14 15:09:00,28.3,24.4,30.27,East,89,0.0,0.0,85,0.01,,---,0.01,VWS V14.01,2013-02-14 22:09:00,
2013-02-14 15:14:00,28.2,24.4,30.27,East,89,0.0,0.0,85,0.01,,---,0.01,VWS V14.01,2013-02-14 22:14:00,
2013-02-14 15:19:00,28.1,24.3,30.26,East,89,0.0,0.0,86,0.01,,---,0.01,VWS V14.01,2013-02-14 22:19:00,
2013-02-14 15:24:00,28.2,24.5,30.26,East,89,0.0,0.0,86,0.01,,---,0.01,VWS V14.01,2013-02-14 22:24:00,
2013-02-14 15:29:00,28.4,24.8,30.27,East,89,0.0,0.0,86,0.01,,---,0.01,VWS V14.01,2013-02-14 22:29:00,
2013-02-14 15:34:00,28.5,24.9,30.26,East,89,0.0,0.0,86,0.01,,---,0.01,VWS V14.01,2013-02-14 22:34:00,
2013-02-14 15:39:00,28.3,24.5,30.27,East,89,0.0,0.0,85,0.01,,---,0.01,VWS V14.01,2013-02-14 22:39:00,
2013-02-14 15:44:00,28.0,24.3,30.27,East,89,0.0,0.0,86,0.01,,---,0.01,VWS V14.01,2013-02-14 22:44:00,
2013-02-14 15:49:00,27.6,24.1,30.27,East,89,0.0,0.0,86,0.01,,---,0.01,VWS V14.01,2013-02-14 22:49:00,
2013-02-14 15:54:00,27.4,23.9,30.27,East,89,0.0,0.0,86,0.01,,---,0.01,VWS V14.01,2013-02-14 22:54:00,
2013-02-14 15:59:00,27.3,23.8,30.27,East,89,0.0,0.0,86,0.01,,---,0.01,VWS V14.01,2013-02-14 22:59:00,
2013-02-14 16:04:00,27.2,23.8,30.27,East,89,0.0,0.0,87,0.01,,---,0.01,VWS V14.01,2013-02-14 23:04:00,
2013-02-14 16:09:00,27.2,23.9,30.27,East,89,0.0,0.0,87,0.01,,---,0.01,VWS V14.01,2013-02-14 23:09:00,
2013-02-14 16:14:00,27.3,24.1,30.27,East,89,0.0,0.0,88,0.01,,---,0.01,VWS V14.01,2013-02-14 23:14:00,
2013-02-14 16:19:00,27.5,24.2,30.27,East,89,0.0,0.0,87,0.01,,---,0.01,VWS V14.01,2013-02-14 23:19:00,
2013-02-14 16:24:00,27.5,24.1,30.27,East,89,0.0,0.0,87,0.01,,---,0.01,VWS V14.01,2013-02-14 23:24:00,
2013-02-14 16:29:00,27.5,24.0,30.27,East,89,0.0,0.0,86,0.01,,---,0.01,VWS V14.01,2013-02-14 23:29:00,
2013-02-14 16:34:00,27.6,24.0,30.27,East,89,0.0,0.0,86,0.01,,---,0.01,VWS V14.01,2013-02-14 23:34:00,
2013-02-14 16:39:00,27.5,23.4,30.27,East,89,0.0,0.0,84,0.01,,---,0.01,VWS V14.01,2013-02-14 23:39:00,
2013-02-14 16:44:00,27.5,23.1,30.27,East,89,0.0,0.0,83,0.01,,---,0.01,VWS V14.01,2013-02-14 23:44:00,
2013-02-14 16:49:00,27.5,22.9,30.27,East,89,0.0,0.0,82,0.01,,---,0.01,VWS V14.01,2013-02-14 23:49:00,
2013-02-14 16:54:00,27.5,22.7,30.27,East,89,0.0,0.0,82,0.01,,---,0.01,VWS V14.01,2013-02-14 23:54:00,
2013-02-14 16:59:00,27.5,22.5,30.27,East,89,0.0,0.0,81,0.01,,---,0.01,VWS V14.01,2013-02-14 23:59:00,
2013-02-14 17:04:00,27.4,22.3,30.27,East,89,0.0,0.0,81,0.01,,---,0.01,VWS V14.01,2013-02-15 00:04:00,
2013-02-14 17:09:00,27.4,22.1,30.27,East,89,0.0,0.0,80,0.01,,---,0.01,VWS V14.01,2013-02-15 00:09:00,
2013-02-14 17:14:00,27.2,21.9,30.27,East,89,0.0,0.0,80,0.01,,---,0.01,VWS V14.01,2013-02-15 00:14:00,
2013-02-14 17:19:00,27.2,21.8,30.27,East,89,0.0,0.0,80,0.01,,---,0.01,VWS V14.01,2013-02-15 00:19:00,
2013-02-14 17:24:00,27.2,21.5,30.27,East,89,0.0,0.0,79,0.01,,---,0.01,VWS V14.01,2013-02-15 00:24:00,
2013-02-14 17:29:00,27.1,21.4,30.27,East,89,0.0,0.0,79,0.01,,---,0.01,VWS V14.01,2013-02-15 00:29:00,
2013-02-14 17:34:00,27.1,21.1,30.27,East,89,0.0,0.0,78,0.01,,---,0.01,VWS V14.01,2013-02-15 00:34:00,
2013-02-14 17:39:00,27.0,21.2,30.27,East,89,0.0,0.0,78,0.01,,---,0.01,VWS V14.01,2013-02-15 00:39:00,
2013-02-14 17:44:00,27.2,21.2,30.27,East,89,0.0,0.0,78,0.01,,---,0.01,VWS V14.01,2013-02-15 00:44:00,
2013-02-14 17:50:00,27.2,21.4,30.27,East,89,0.0,0.0,78,0.01,,---,0.01,VWS V14.01,2013-02-15 00:50:00,
2013-02-14 17:55:00,27.2,21.1,30.27,East,89,0.0,0.0,78,0.01,,---,0.01,VWS V14.01,2013-02-15 00:55:00,
2013-02-14 18:00:00,27.2,21.1,30.27,East,89,0.0,0.0,78,0.01,,---,0.01,VWS V14.01,2013-02-15 01:00:00,
2013-02-14 18:05:00,27.2,21.1,30.27,East,89,0.0,0.0,78,0.01,,---,0.01,VWS V14.01,2013-02-15 01:05:00,
2013-02-14 18:10:00,27.2,21.2,30.27,East,89,0.0,0.0,78,0.01,,---,0.01,VWS V14.01,2013-02-15 01:10:00,
2013-02-14 18:15:00,27.3,20.9,30.27,East,89,0.0,0.0,76,0.01,,---,0.01,VWS V14.01,2013-02-15 01:15:00,
2013-02-14 18:20:00,27.3,20.9,30.28,East,89,0.0,0.0,76,0.01,,---,0.01,VWS V14.01,2013-02-15 01:20:00,
2013-02-14 18:25:00,27.3,21.0,30.28,East,89,0.0,0.0,77,0.01,,---,0.01,VWS V14.01,2013-02-15 01:25:00,
2013-02-14 18:30:00,27.3,21.1,30.28,East,89,0.0,0.0,77,0.01,,---,0.01,VWS V14.01,2013-02-15 01:30:00,
2013-02-14 18:35:00,27.2,21.0,30.28,East,89,0.0,0.0,77,0.01,,---,0.01,VWS V14.01,2013-02-15 01:35:00,
2013-02-14 18:40:00,27.3,21.4,30.28,East,89,0.0,0.0,78,0.01,,---,0.01,VWS V14.01,2013-02-15 01:40:00,
2013-02-14 18:45:00,27.3,21.3,30.28,East,89,0.0,0.0,78,0.01,,---,0.01,VWS V14.01,2013-02-15 01:45:00,
2013-02-14 18:50:00,27.2,21.0,30.28,East,89,0.0,0.0,77,0.01,,---,0.01,VWS V14.01,2013-02-15 01:50:00,
2013-02-14 18:55:00,27.2,21.1,30.28,East,89,0.0,0.0,77,0.01,,---,0.01,VWS V14.01,2013-02-15 01:55:00,
2013-02-14 19:00:00,27.3,21.4,30.28,East,89,0.0,0.0,78,0.01,,---,0.01,VWS V14.01,2013-02-15 02:00:00,
2013-02-14 19:05:00,27.2,21.1,30.28,East,89,0.0,0.0,78,0.01,,---,0.01,VWS V14.01,2013-02-15 02:05:00,
2013-02-14 19:10:00,27.2,21.3,30.28,East,89,0.0,0.0,78,0.01,,---,0.01,VWS V14.01,2013-02-15 02:10:00,
2013-02-14 19:15:00,27.1,21.3,30.28,East,89,0.0,0.0,78,0.01,,---,0.01,VWS V14.01,2013-02-15 02:15:00,
2013-02-14 19:20:00,27.0,20.9,30.28,East,89,0.0,0.0,78,0.01,,---,0.01,VWS V14.01,2013-02-15 02:20:00,
2013-02-14 19:25:00,26.8,20.7,30.28,East,89,0.0,0.0,77,0.01,,---,0.01,VWS V14.01,2013-02-15 02:25:00,
2013-02-14 19:30:00,26.8,20.6,30.28,East,89,0.0,0.0,77,0.01,,---,0.01,VWS V14.01,2013-02-15 02:30:00,
2013-02-14 19:35:00,26.7,20.8,30.28,East,89,0.0,0.0,78,0.01,,---,0.01,VWS V14.01,2013-02-15 02:35:00,
2013-02-14 19:40:00,26.8,20.9,30.29,East,89,0.0,0.0,78,0.01,,---,0.01,VWS V14.01,2013-02-15 02:40:00,
2013-02-14 19:45:00,26.7,20.5,30.28,East,89,0.0,0.0,77,0.01,,---,0.01,VWS V14.01,2013-02-15 02:45:00,
2013-02-14 19:50:00,26.6,20.3,30.28,East,89,0.0,0.0,77,0.01,,---,0.01,VWS V14.01,2013-02-15 02:50:00,
2013-02-14 19:55:00,26.5,19.9,30.29,East,89,0.0,0.0,76,0.01,,---,0.01,VWS V14.01,2013-02-15 02:55:00,
2013-02-14 20:00:00,26.5,19.6,30.28,East,89,0.0,0.0,75,0.01,,---,0.01,VWS V14.01,2013-02-15 03:00:00,
2013-02-14 20:05:00,26.5,19.5,30.28,East,89,0.0,0.0,75,0.01,,---,0.01,VWS V14.01,2013-02-15 03:05:00,
2013-02-14 20:10:00,26.3,19.2,30.28,East,89,0.0,0.0,74,0.01,,---,0.01,VWS V14.01,2013-02-15 03:10:00,
2013-02-14 20:15:00,26.3,19.2,30.28,East,89,0.0,0.0,74,0.01,,---,0.01,VWS V14.01,2013-02-15 03:15:00,
2013-02-14 20:20:00,26.3,19.3,30.28,East,89,0.0,0.0,74,0.01,,---,0.01,VWS V14.01,2013-02-15 03:20:00,
2013-02-14 20:25:00,26.3,19.1,30.28,East,89,0.0,0.0,74,0.01,,---,0.01,VWS V14.01,2013-02-15 03:25:00,
2013-02-14 20:30:00,26.2,19.0,30.28,East,89,0.0,0.0,74,0.01,,---,0.01,VWS V14.01,2013-02-15 03:30:00,
2013-02-14 20:35:00,26.2,18.9,30.28,East,89,0.0,0.0,74,0.01,,---,0.01,VWS V14.01,2013-02-15 03:35:00,
2013-02-14 20:40:00,26.1,18.7,30.28,East,89,0.0,0.0,73,0.01,,---,0.01,VWS V14.01,2013-02-15 03:40:00,
2013-02-14 20:45:00,26.1,18.6,30.28,East,89,0.0,0.0,73,0.01,,---,0.01,VWS V14.01,2013-02-15 03:45:00,
2013-02-14 20:50:00,26.1,18.7,30.28,East,89,0.0,0.0,73,0.01,,---,0.01,VWS V14.01,2013-02-15 03:50:00,
2013-02-14 20:55:00,26.1,18.8,30.28,East,89,0.0,0.0,73,0.01,,---,0.01,VWS V14.01,2013-02-15 03:55:00,
2013-02-14 21:00:00,26.0,18.7,30.28,East,89,0.0,0.0,74,0.01,,---,0.01,VWS V14.01,2013-02-15 04:00:00,
2013-02-14 21:05:00,25.9,18.8,30.28,East,89,0.0,0.0,74,0.01,,---,0.01,VWS V14.01,2013-02-15 04:05:00,
2013-02-14 21:10:00,25.8,18.8,30.28,East,89,0.0,0.0,74,0.01,,---,0.01,VWS V14.01,2013-02-15 04:10:00,
2013-02-14 21:15:00,25.8,18.7,30.28,East,89,0.0,0.0,74,0.01,,---,0.01,VWS V14.01,2013-02-15 04:15:00,
2013-02-14 21:20:00,25.8,18.6,30.28,East,89,0.0,0.0,74,0.01,,---,0.01,VWS V14.01,2013-02-15 04:20:00,
2013-02-14 21:26:00,25.7,18.4,30.28,East,89,0.0,0.0,74,0.01,,---,0.01,VWS V14.01,2013-02-15 04:26:00,
2013-02-14 21:31:00,25.6,18.3,30.28,East,89,0.0,0.0,73,0.01,,---,0.01,VWS V14.01,2013-02-15 04:31:00,
2013-02-14 21:36:00,25.6,18.3,30.28,East,89,0.0,0.0,73,0.01,,---,0.01,VWS V14.01,2013-02-15 04:36:00,
2013-02-14 21:41:00,25.5,18.1,30.28,East,89,0.0,0.0,73,0.01,,---,0.01,VWS V14.01,2013-02-15 04:41:00,
2013-02-14 21:46:00,25.4,17.9,30.28,East,89,0.0,0.0,73,0.01,,---,0.01,VWS V14.01,2013-02-15 04:46:00,
2013-02-14 21:51:00,25.4,17.8,30.27,East,89,0.0,0.0,72,0.01,,---,0.01,VWS V14.01,2013-02-15 04:51:00,
2013-02-14 21:56:00,25.4,17.7,30.27,East,89,0.0,0.0,72,0.01,,---,0.01,VWS V14.01,2013-02-15 04:56:00,
2013-02-14 22:00:00,25.3,17.6,30.27,East,89,0.0,0.0,72,0.01,,---,0.01,VWS V14.01,2013-02-15 05:00:00,
2013-02-14 22:05:00,25.2,17.3,30.27,East,89,0.0,0.0,71,0.01,,---,0.01,VWS V14.01,2013-02-15 05:05:00,
2013-02-14 22:10:00,25.1,17.1,30.27,East,89,0.0,0.0,71,0.01,,---,0.01,VWS V14.01,2013-02-15 05:10:00,
2013-02-14 22:15:00,25.1,17.1,30.27,East,89,0.0,0.0,71,0.01,,---,0.01,VWS V14.01,2013-02-15 05:15:00,
2013-02-14 22:20:00,25.0,17.0,30.27,East,89,0.0,0.0,71,0.01,,---,0.01,VWS V14.01,2013-02-15 05:20:00,
2013-02-14 22:25:00,24.9,17.0,30.27,East,89,0.0,0.0,71,0.01,,---,0.01,VWS V14.01,2013-02-15 05:25:00,
2013-02-14 22:30:00,24.7,16.9,30.26,East,89,0.0,0.0,72,0.01,,---,0.01,VWS V14.01,2013-02-15 05:30:00,
2013-02-14 22:35:00,24.7,17.2,30.26,East,89,0.0,0.0,73,0.01,,---,0.01,VWS V14.01,2013-02-15 05:35:00,
2013-02-14 22:40:00,24.6,17.2,30.26,East,89,0.0,0.0,73,0.01,,---,0.01,VWS V14.01,2013-02-15 05:40:00,
2013-02-14 22:45:00,24.4,17.1,30.26,East,89,0.0,0.0,73,0.01,,---,0.01,VWS V14.01,2013-02-15 05:45:00,
2013-02-14 22:50:00,24.3,17.2,30.26,East,89,0.0,0.0,74,0.01,,---,0.01,VWS V14.01,2013-02-15 05:50:00,
2013-02-14 22:55:00,24.3,17.3,30.26,East,89,0.0,0.0,74,0.01,,---,0.01,VWS V14.01,2013-02-15 05:55:00,
2013-02-14 23:00:00,24.3,17.4,30.26,East,89,0.0,0.0,74,0.01,,---,0.01,VWS V14.01,2013-02-15 06:00:00,
2013-02-14 23:05:00,24.3,17.5,30.26,East,89,0.0,0.0,75,0.01,,---,0.01,VWS V14.01,2013-02-15 06:05:00,
2013-02-14 23:10:00,24.2,17.3,30.26,East,89,0.0,0.0,75,0.01,,---,0.01,VWS V14.01,2013-02-15 06:10:00,
2013-02-14 23:15:00,24.2,17.3,30.26,South,172,0.0,0.0,75,0.01,,---,0.01,VWS V14.01,2013-02-15 06:15:00,
2013-02-14 23:19:00,23.6,16.7,30.25,SE,146,0.0,0.0,74,0.01,,---,0.00,VWS V14.01,2013-02-15 06:19:00,
2013-02-14 23:20:00,24.2,17.5,30.26,South,172,0.0,0.0,75,0.01,,---,0.01,VWS V14.01,2013-02-15 06:20:00,
2013-02-14 23:21:00,23.6,16.7,30.25,SE,146,0.0,0.0,74,0.00,,---,0.00,VWS V14.01,2013-02-15 06:21:00,
2013-02-14 23:22:00,23.6,16.7,30.25,SE,146,0.0,0.0,74,0.00,,---,0.00,VWS V14.01,2013-02-15 06:22:00,
2013-02-14 23:23:00,23.6,16.6,30.25,SE,146,0.0,0.0,74,0.00,,---,0.00,VWS V14.01,2013-02-15 06:23:00,
2013-02-14 23:24:00,23.5,16.5,30.25,SE,146,0.0,0.0,74,0.00,,---,0.00,VWS V14.01,2013-02-15 06:24:00,
2013-02-14 23:25:00,24.3,17.6,30.26,South,172,0.0,0.0,75,0.01,,---,0.01,VWS V14.01,2013-02-15 06:25:00,
2013-02-14 23:26:00,23.5,16.5,30.25,SE,146,0.0,0.0,74,0.00,,---,0.00,VWS V14.01,2013-02-15 06:26:00,
2013-02-14 23:27:00,23.5,16.5,30.25,SE,146,0.0,0.0,74,0.00,,---,0.00,VWS V14.01,2013-02-15 06:27:00,
2013-02-14 23:28:00,23.4,16.4,30.25,SE,146,0.0,0.0,74,0.00,,---,0.00,VWS V14.01,2013-02-15 06:28:00,
2013-02-14 23:29:00,23.4,16.3,30.25,SE,146,0.0,0.0,74,0.00,,---,0.00,VWS V14.01,2013-02-15 06:29:00,
2013-02-14 23:30:00,24.3,17.6,30.25,South,172,0.0,0.0,75,0.01,,---,0.01,VWS V14.01,2013-02-15 06:30:00,
2013-02-14 23:31:00,23.3,16.3,30.25,SE,146,0.0,0.0,74,0.00,,---,0.00,VWS V14.01,2013-02-15 06:31:00,
2013-02-14 23:32:00,23.3,16.3,30.25,SE,146,0.0,0.0,74,0.00,,---,0.00,VWS V14.01,2013-02-15 06:32:00,
2013-02-14 23:33:00,23.3,16.2,30.25,SE,146,0.0,0.0,74,0.00,,---,0.00,VWS V14.01,2013-02-15 06:33:00,
2013-02-14 23:34:00,23.3,16.2,30.25,SE,146,0.0,0.0,74,0.00,,---,0.00,VWS V14.01,2013-02-15 06:34:00,
2013-02-14 23:35:00,24.3,17.6,30.25,South,172,0.0,0.0,75,0.01,,---,0.01,VWS V14.01,2013-02-15 06:35:00,
2013-02-14 23:36:00,23.2,16.2,30.25,SE,146,0.0,0.0,74,0.00,,---,0.00,VWS V14.01,2013-02-15 06:36:00,
2013-02-14 23:37:00,23.2,16.2,30.25,SE,146,0.0,0.0,74,0.00,,---,0.00,VWS V14.01,2013-02-15 06:37:00,
2013-02-14 23:38:00,23.2,16.2,30.25,SE,146,0.0,0.0,74,0.00,,---,0.00,VWS V14.01,2013-02-15 06:38:00,
2013-02-14 23:39:00,23.2,16.2,30.25,SE,146,0.0,0.0,74,0.00,,---,0.00,VWS V14.01,2013-02-15 06:39:00,
2013-02-14 23:40:00,24.3,17.6,30.25,South,172,0.0,0.0,75,0.01,,---,0.01,VWS V14.01,2013-02-15 06:40:00,
2013-02-14 23:41:00,23.1,15.9,30.25,SE,146,0.0,0.0,74,0.00,,---,0.00,VWS V14.01,2013-02-15 06:41:00,
2013-02-14 23:42:00,23.1,15.9,30.25,SE,146,0.0,0.0,74,0.00,,---,0.00,VWS V14.01,2013-02-15 06:42:00,
2013-02-14 23:43:00,23.0,15.8,30.25,SE,146,0.0,0.0,74,0.00,,---,0.00,VWS V14.01,2013-02-15 06:43:00,
2013-02-14 23:44:00,23.0,15.9,30.25,SE,146,0.0,0.0,74,0.00,,---,0.00,VWS V14.01,2013-02-15 06:44:00,
2013-02-14 23:45:00,24.4,18.0,30.25,SW,226,6.3,6.3,76,0.01,,---,0.01,VWS V14.01,2013-02-15 06:45:00,
2013-02-14 23:46:00,22.9,15.8,30.25,SE,146,0.0,0.0,74,0.00,,---,0.00,VWS V14.01,2013-02-15 06:46:00,
2013-02-14 23:47:00,22.9,15.7,30.25,SE,146,0.0,0.0,74,0.00,,---,0.00,VWS V14.01,2013-02-15 06:47:00,
2013-02-14 23:48:00,22.9,15.7,30.25,SE,146,0.0,0.0,74,0.00,,---,0.00,VWS V14.01,2013-02-15 06:48:00,
2013-02-14 23:49:00,22.9,15.7,30.25,SE,146,0.0,0.0,74,0.00,,---,0.00,VWS V14.01,2013-02-15 06:49:00,
2013-02-14 23:50:00,22.8,15.6,30.25,SE,146,0.0,0.0,73,0.00,,---,0.00,VWS V14.01,2013-02-15 06:50:00,
2013-02-14 23:51:00,24.3,17.6,30.25,SW,221,0.0,0.0,75,0.01,,---,0.01,VWS V14.01,2013-02-15 06:51:00,
2013-02-14 23:52:00,22.8,15.6,30.25,SE,146,0.0,0.0,74,0.00,,---,0.00,VWS V14.01,2013-02-15 06:52:00,
2013-02-14 23:53:00,22.8,15.6,30.25,SE,146,0.0,0.0,73,0.00,,---,0.00,VWS V14.01,2013-02-15 06:53:00,
2013-02-14 23:54:00,22.8,15.6,30.25,SE,146,0.0,0.0,73,0.00,,---,0.00,VWS V14.01,2013-02-15 06:54:00,
2013-02-14 23:55:00,22.7,15.5,30.25,SE,146,0.0,0.0,73,0.00,,---,0.00,VWS V14.01,2013-02-15 06:55:00,
2013-02-14 23:56:00,24.2,17.4,30.25,SSW,194,0.0,0.0,75,0.01,,---,0.01,VWS V14.01,2013-02-15 06:56:00,
2013-02-14 23:57:00,22.7,15.4,30.25,SE,146,0.0,0.0,73,0.00,,---,0.00,VWS V14.01,2013-02-15 06:57:00,
2013-02-14 23:58:00,22.7,15.4,30.25,SE,146,0.0,0.0,73,0.00,,---,0.00,VWS V14.01,2013-02-15 06:58:00,
2013-02-14 23:59:00,22.7,15.5,30.25,SE,146,0.0,0.0,73,0.00,,---,0.00,VWS V14.01,2013-02-15 06:59:00,